KRAL/RAL METAR and TAF weather

Enter ICAO airport designator
Station Type Date Time Source
KRAL METAR 2019/12/12 08:53 UTC NOAA

KRAL 120853Z AUTO 06004KT 10SM CLR 11/06 A3019 RMK AO2 SLP212 T01060056 58003


Station Type Date Time Source
KRAL Decoded METAR 2019/12/12 08:53 UTC NOAA

RIVERSIDE MUNICIPAL AIRPORT , CA, United States (KRAL) 33-57N 117-27W 252M
Dec 12, 2019 - 03:53 AM EST / 2019.12.12 0853 UTC
Wind: from the ENE (060 degrees) at 5 MPH (4 KT):0
Visibility: 10 mile(s):0
Sky conditions: clear
Temperature: 51.1 F (10.6 C)
Dew Point: 42.1 F (5.6 C)
Relative Humidity: 71%
Pressure (altimeter): 30.19 in. Hg (1022 hPa)
Pressure tendency: 0.01 inches (0.3 hPa) lower than three hours ago
ob: KRAL 120853Z AUTO 06004KT 10SM CLR 11/06 A3019 RMK AO2 SLP212 T01060056 58003
cycle: 9

Station Type Date Time Source
KRAL TAF UTC NOAA

Error!

Example: see airport list